Time;durP1;ratioP1;P1;durP2;ratioP2;P2;SDS_P1;SDS_P2;PMS_P1;PMS_P2;Temp;Humidity;BMP_temperature;BMP_pressure;BME280_temperature;BME280_humidity;BME280_pressure;Samples;Min_cycle;Max_cycle;Signal;HPM_P1;HPM_P2
2023/01/22 00:01:11;;;;;;;147.40;52.33;;;1.60;99.90;;;;;;4919510;29;20031;-83
2023/01/22 00:03:38;;;;;;;152.10;52.70;;;1.60;99.90;;;;;;4919514;29;20028;-82
2023/01/22 00:06:05;;;;;;;151.77;54.15;;;1.60;99.90;;;;;;4919559;29;20028;-83
2023/01/22 00:08:31;;;;;;;141.98;50.53;;;1.60;99.90;;;;;;4919583;29;20098;-83
2023/01/22 00:10:57;;;;;;;132.00;47.17;;;1.60;99.90;;;;;;4936317;29;20079;-82
2023/01/22 00:13:24;;;;;;;180.15;67.07;;;1.60;99.90;;;;;;4919569;29;20031;-83
2023/01/22 00:15:50;;;;;;;159.38;57.42;;;1.60;99.90;;;;;;4919427;29;20024;-83
2023/01/22 00:18:17;;;;;;;137.52;49.80;;;1.60;99.90;;;;;;4931385;29;20028;-83
2023/01/22 00:20:47;;;;;;;142.70;54.00;;;1.60;99.90;;;;;;4938424;29;20374;-84
2023/01/22 00:23:13;;;;;;;170.65;65.10;;;1.60;99.90;;;;;;4954110;29;20027;-84
2023/01/22 00:25:39;;;;;;;125.65;48.60;;;1.60;99.90;;;;;;4938388;29;20378;-82
2023/01/22 00:28:05;;;;;;;135.15;50.03;;;1.60;99.90;;;;;;4951124;29;20027;-82
2023/01/22 00:30:31;;;;;;;139.90;50.65;;;1.60;99.90;;;;;;4938493;29;20038;-82
2023/01/22 00:32:57;;;;;;;136.43;48.63;;;1.60;99.90;;;;;;4955535;29;20027;-83
2023/01/22 00:35:23;;;;;;;144.80;51.97;;;1.60;99.90;;;;;;4938338;29;20446;-83
2023/01/22 00:37:48;;;;;;;140.43;48.92;;;1.60;99.90;;;;;;4938372;29;20023;-82
2023/01/22 00:40:15;;;;;;;142.95;52.92;;;1.60;99.90;;;;;;4938143;29;20027;-83
2023/01/22 00:42:41;;;;;;;144.73;53.20;;;1.60;99.90;;;;;;4937983;29;20027;-82
2023/01/22 00:45:07;;;;;;;126.28;49.88;;;1.60;99.90;;;;;;4938124;29;20026;-83
2023/01/22 00:47:34;;;;;;;130.73;50.40;;;1.60;99.90;;;;;;4938351;29;20027;-82
2023/01/22 00:50:01;;;;;;;137.35;52.92;;;1.60;99.90;;;;;;4938229;29;20042;-82
2023/01/22 00:52:26;;;;;;;132.38;51.35;;;1.60;99.90;;;;;;4938006;29;20058;-82
2023/01/22 00:54:52;;;;;;;130.32;48.20;;;1.60;99.90;;;;;;4955149;29;20062;-83
2023/01/22 00:57:21;;;;;;;128.85;49.28;;;1.60;99.90;;;;;;4938030;29;20114;-83
2023/01/22 00:59:47;;;;;;;109.03;45.60;;;1.60;99.90;;;;;;4938189;29;20082;-82
2023/01/22 01:02:13;;;;;;;116.45;46.65;;;1.50;99.90;;;;;;4938174;29;20493;-83
2023/01/22 01:04:39;;;;;;;118.55;45.05;;;1.50;99.90;;;;;;4938222;29;20385;-83
2023/01/22 01:07:05;;;;;;;116.25;48.08;;;1.50;99.90;;;;;;4937916;29;20024;-83
2023/01/22 01:09:31;;;;;;;117.78;45.92;;;1.50;99.90;;;;;;4938147;29;20027;-83
2023/01/22 01:11:59;;;;;;;115.45;46.50;;;1.50;99.90;;;;;;4955496;28;20044;-84
2023/01/22 01:14:25;;;;;;;106.20;42.25;;;1.60;99.90;;;;;;4939505;29;20080;-83
2023/01/22 01:16:51;;;;;;;114.13;45.67;;;1.60;99.90;;;;;;4940548;29;20081;-84
2023/01/22 01:19:19;;;;;;;115.78;48.47;;;1.60;99.90;;;;;;4922346;29;20028;-84
2023/01/22 01:21:45;;;;;;;128.27;49.22;;;1.50;99.90;;;;;;4922269;29;20079;-83
2023/01/22 01:24:12;;;;;;;119.05;50.67;;;1.60;99.90;;;;;;4922300;29;20035;-84
2023/01/22 01:26:41;;;;;;;117.93;48.80;;;1.60;99.90;;;;;;4922529;29;20028;-84
2023/01/22 01:29:08;;;;;;;121.03;47.58;;;1.60;99.90;;;;;;4922053;29;20368;-84
2023/01/22 01:31:36;;;;;;;117.10;46.95;;;1.60;99.90;;;;;;4922251;29;20032;-84
2023/01/22 01:34:02;;;;;;;106.78;43.95;;;1.60;99.90;;;;;;4921982;29;20023;-83
2023/01/22 01:36:28;;;;;;;105.53;44.75;;;1.60;99.90;;;;;;4922329;29;20031;-83
2023/01/22 01:38:54;;;;;;;106.00;46.10;;;1.60;99.90;;;;;;4922031;29;20030;-83
2023/01/22 01:41:23;;;;;;;110.32;45.63;;;1.60;99.90;;;;;;4921857;29;20110;-84
2023/01/22 01:44:16;;;;;;;106.00;44.97;;;1.60;99.90;;;;;;4934771;29;20462;-83
2023/01/22 01:47:00;;;;;;;116.25;47.38;;;1.60;99.90;;;;;;4940937;29;20419;-83
2023/01/22 01:49:45;;;;;;;123.43;46.80;;;1.60;99.90;;;;;;4940823;29;20034;-84
2023/01/22 01:52:13;;;;;;;142.48;55.85;;;1.60;99.90;;;;;;4923628;29;20535;-84
2023/01/22 01:54:43;;;;;;;102.78;44.05;;;1.70;99.90;;;;;;4938790;29;20031;-83
2023/01/22 01:57:14;;;;;;;112.88;46.58;;;1.70;99.90;;;;;;4921519;29;20527;-84
2023/01/22 01:59:41;;;;;;;127.15;54.63;;;1.70;99.90;;;;;;4921707;29;20050;-84
2023/01/22 02:02:07;;;;;;;120.78;53.22;;;1.70;99.90;;;;;;4921089;29;20079;-84
2023/01/22 02:04:33;;;;;;;132.70;54.75;;;1.70;99.90;;;;;;4940385;29;20019;-84
2023/01/22 02:07:00;;;;;;;98.30;41.88;;;1.80;99.90;;;;;;4940022;29;20019;-84
2023/01/22 02:09:26;;;;;;;104.68;43.33;;;1.70;99.90;;;;;;4956847;29;20047;-84
2023/01/22 02:11:53;;;;;;;104.97;43.33;;;1.70;99.90;;;;;;4957053;28;20461;-85
2023/01/22 02:14:28;;;;;;;110.50;45.30;;;1.70;99.90;;;;;;4939370;29;20089;-84
2023/01/22 02:17:06;;;;;;;99.07;40.10;;;1.70;99.90;;;;;;4954473;29;20046;-84
2023/01/22 02:19:32;;;;;;;98.65;39.25;;;1.80;99.90;;;;;;4939468;29;20034;-84
2023/01/22 02:21:58;;;;;;;90.95;39.60;;;1.80;99.90;;;;;;4939966;29;20027;-85
2023/01/22 02:24:28;;;;;;;102.95;39.72;;;1.80;99.90;;;;;;4956746;28;20447;-85
2023/01/22 02:26:53;;;;;;;88.82;36.53;;;1.80;99.90;;;;;;4938925;29;20085;-83
2023/01/22 02:29:19;;;;;;;87.40;37.45;;;1.80;99.90;;;;;;4939655;29;20114;-85
2023/01/22 02:31:45;;;;;;;91.30;37.05;;;1.80;99.90;;;;;;4939359;29;20058;-84
2023/01/22 02:34:11;;;;;;;74.55;35.33;;;1.80;99.90;;;;;;4939597;29;20027;-84
2023/01/22 02:36:38;;;;;;;93.00;37.95;;;1.80;99.90;;;;;;4939727;29;20027;-85
2023/01/22 02:39:04;;;;;;;83.53;36.33;;;1.90;99.90;;;;;;4939484;29;20110;-85
2023/01/22 02:41:30;;;;;;;94.20;40.85;;;1.80;99.90;;;;;;4957041;29;20031;-85
2023/01/22 02:43:55;;;;;;;88.88;40.20;;;1.80;99.90;;;;;;4956419;29;20024;-85
2023/01/22 02:46:21;;;;;;;102.07;43.10;;;1.90;99.90;;;;;;4939174;29;20038;-84
2023/01/22 02:48:47;;;;;;;86.53;35.42;;;1.80;99.90;;;;;;4956096;29;20050;-85
2023/01/22 02:51:13;;;;;;;88.53;34.33;;;1.90;99.90;;;;;;4955832;29;20034;-84
2023/01/22 02:53:39;;;;;;;91.13;37.78;;;1.90;99.90;;;;;;4939427;29;20031;-85
2023/01/22 02:56:07;;;;;;;86.30;35.63;;;1.90;99.90;;;;;;4938896;29;20340;-85
2023/01/22 02:58:33;;;;;;;93.00;37.70;;;1.90;99.90;;;;;;4938840;29;20098;-85
2023/01/22 03:01:17;;;;;;;95.47;41.00;;;1.80;99.90;;;;;;4938997;29;20365;-84
2023/01/22 03:03:44;;;;;;;94.00;42.72;;;1.90;99.90;;;;;;4938453;29;20130;-85
2023/01/22 03:06:10;;;;;;;94.07;40.75;;;1.90;99.90;;;;;;4954645;29;20023;-85
2023/01/22 03:08:36;;;;;;;99.15;44.17;;;1.90;99.90;;;;;;4938989;29;20019;-85
2023/01/22 03:11:02;;;;;;;102.88;46.10;;;1.90;99.90;;;;;;4938131;28;20041;-86
2023/01/22 03:22:09;;;;;;;77.93;35.05;;;1.90;99.90;;;;;;4955944;29;20078;-84
2023/01/22 03:24:37;;;;;;;71.35;34.97;;;1.80;99.90;;;;;;4955736;29;20019;-85
2023/01/22 03:27:03;;;;;;;71.07;33.45;;;1.90;99.90;;;;;;4938067;29;20118;-85
2023/01/22 03:29:29;;;;;;;74.25;33.85;;;1.90;99.90;;;;;;4938629;29;20023;-85
2023/01/22 03:32:08;;;;;;;63.55;33.03;;;1.90;99.90;;;;;;4937957;29;20093;-85
2023/01/22 03:34:34;;;;;;;68.55;33.22;;;1.90;99.90;;;;;;4937981;29;20094;-84
2023/01/22 03:36:59;;;;;;;61.58;31.27;;;1.90;99.90;;;;;;4938019;29;20423;-84
2023/01/22 03:39:26;;;;;;;67.82;32.58;;;1.90;99.90;;;;;;4938449;29;20391;-85
2023/01/22 03:41:52;;;;;;;64.68;31.83;;;1.90;99.90;;;;;;4938414;29;20039;-85
2023/01/22 03:44:17;;;;;;;62.33;31.90;;;2.00;99.90;;;;;;4938630;29;20062;-85
2023/01/22 03:46:43;;;;;;;63.67;30.77;;;2.00;99.90;;;;;;4938366;29;20078;-85
2023/01/22 03:49:12;;;;;;;61.75;31.58;;;2.00;99.90;;;;;;4937925;29;20105;-85
2023/01/22 03:51:37;;;;;;;62.53;30.63;;;2.00;99.90;;;;;;4937878;29;20054;-84
2023/01/22 03:54:03;;;;;;;65.22;30.52;;;2.00;99.90;;;;;;4955189;29;20051;-85
2023/01/22 03:56:30;;;;;;;62.70;29.83;;;2.00;99.90;;;;;;4938291;29;20106;-85
2023/01/22 03:58:58;;;;;;;63.45;31.63;;;2.00;99.90;;;;;;4938252;29;20027;-84
2023/01/22 04:01:26;;;;;;;73.43;34.30;;;2.10;99.90;;;;;;4937566;29;20509;-85
2023/01/22 04:04:14;;;;;;;63.58;32.28;;;2.10;99.90;;;;;;4937895;29;20074;-85
2023/01/22 04:06:40;;;;;;;64.30;32.22;;;2.10;99.90;;;;;;4935104;29;20118;-85
2023/01/22 04:09:05;;;;;;;74.38;34.33;;;2.10;99.90;;;;;;4935072;29;20120;-85
2023/01/22 04:11:31;;;;;;;76.22;35.90;;;2.10;99.90;;;;;;4952722;28;20122;-85
2023/01/22 04:13:57;;;;;;;69.72;36.45;;;2.10;99.90;;;;;;4938473;29;20119;-84
2023/01/22 04:16:23;;;;;;;72.22;32.30;;;2.10;99.90;;;;;;4938403;29;20019;-84
2023/01/22 04:18:49;;;;;;;74.85;35.60;;;2.00;99.90;;;;;;4955554;29;20436;-85
2023/01/22 04:21:14;;;;;;;63.85;32.97;;;2.00;99.90;;;;;;4938394;29;20026;-84
2023/01/22 04:23:40;;;;;;;68.60;32.47;;;2.10;99.90;;;;;;4938235;29;20035;-85
2023/01/22 04:26:06;;;;;;;73.30;34.13;;;2.10;99.90;;;;;;4938219;29;20049;-85
2023/01/22 04:28:37;;;;;;;69.40;34.65;;;2.10;99.90;;;;;;4955462;29;20026;-85
2023/01/22 04:31:03;;;;;;;73.93;37.67;;;2.20;99.90;;;;;;4937825;29;20138;-85
2023/01/22 04:33:30;;;;;;;79.50;39.10;;;2.20;99.90;;;;;;4955494;29;20094;-85
2023/01/22 04:35:55;;;;;;;92.15;41.90;;;2.20;99.90;;;;;;4937970;29;20023;-84
2023/01/22 04:38:21;;;;;;;124.30;52.72;;;2.20;99.90;;;;;;4937527;29;20478;-84
2023/01/22 04:40:47;;;;;;;98.47;46.58;;;2.10;99.90;;;;;;4937616;29;20027;-85
2023/01/22 04:43:13;;;;;;;80.50;41.80;;;2.10;99.90;;;;;;4937425;29;20038;-85
2023/01/22 04:45:39;;;;;;;68.43;34.67;;;2.20;99.90;;;;;;4937792;29;20466;-85
2023/01/22 04:48:07;;;;;;;70.75;33.03;;;2.10;99.90;;;;;;4937647;29;20362;-84
2023/01/22 04:50:33;;;;;;;81.95;39.13;;;2.10;99.90;;;;;;4940898;29;20066;-85
2023/01/22 04:52:59;;;;;;;217.23;83.10;;;2.10;99.90;;;;;;4958722;29;20470;-84
2023/01/22 04:55:26;;;;;;;161.55;62.72;;;2.10;99.90;;;;;;4958645;29;20031;-84
2023/01/22 04:57:56;;;;;;;198.75;78.35;;;2.10;99.90;;;;;;4941098;29;20458;-83
2023/01/22 05:00:23;;;;;;;102.18;47.15;;;2.00;99.90;;;;;;4941351;29;20056;-83
2023/01/22 05:02:49;;;;;;;117.05;52.85;;;2.10;99.90;;;;;;4941154;29;20023;-83
2023/01/22 05:05:15;;;;;;;93.03;47.25;;;2.10;99.90;;;;;;4940646;29;20027;-84
2023/01/22 05:07:40;;;;;;;100.75;49.00;;;2.10;99.90;;;;;;4940832;29;20031;-84
2023/01/22 05:10:07;;;;;;;104.43;49.65;;;2.10;99.90;;;;;;4940614;28;20497;-84
2023/01/22 05:12:33;;;;;;;86.78;40.75;;;2.20;99.90;;;;;;4940543;29;20019;-84
2023/01/22 05:14:58;;;;;;;99.60;44.70;;;2.20;99.90;;;;;;4937100;29;20073;-84
2023/01/22 05:17:24;;;;;;;95.13;42.55;;;2.20;99.90;;;;;;4940615;29;20105;-85
2023/01/22 05:19:50;;;;;;;100.57;43.50;;;2.20;99.90;;;;;;4940799;29;20027;-84
2023/01/22 05:22:16;;;;;;;119.57;51.38;;;2.10;99.90;;;;;;4940912;29;20055;-85
2023/01/22 05:24:41;;;;;;;142.93;58.97;;;2.20;99.90;;;;;;4958409;29;20117;-85
2023/01/22 05:27:07;;;;;;;123.30;51.25;;;2.20;99.90;;;;;;4940734;29;20074;-85
2023/01/22 05:29:33;;;;;;;117.30;47.75;;;2.20;99.90;;;;;;4940471;29;20506;-85
2023/01/22 05:31:58;;;;;;;129.68;55.20;;;2.20;99.90;;;;;;4940255;29;20076;-84
2023/01/22 05:34:25;;;;;;;140.88;57.47;;;2.20;99.90;;;;;;4940700;29;20060;-85
2023/01/22 05:36:51;;;;;;;158.85;66.22;;;2.20;99.90;;;;;;4957642;29;20027;-85
2023/01/22 05:39:17;;;;;;;165.27;64.30;;;2.30;99.90;;;;;;4940293;29;20481;-85
2023/01/22 05:41:43;;;;;;;126.53;54.60;;;2.30;99.90;;;;;;4958144;29;20035;-85
2023/01/22 05:44:10;;;;;;;174.85;71.95;;;2.30;99.90;;;;;;4959117;29;20034;-85
2023/01/22 05:46:36;;;;;;;192.98;77.28;;;2.30;99.90;;;;;;4940782;29;20098;-84
2023/01/22 05:49:03;;;;;;;181.48;76.85;;;2.30;99.90;;;;;;4959960;29;20023;-85
2023/01/22 05:51:29;;;;;;;132.52;57.35;;;2.30;99.90;;;;;;4939044;29;20447;-84
2023/01/22 05:53:54;;;;;;;220.25;97.03;;;2.30;99.90;;;;;;4937679;29;20075;-85
2023/01/22 05:56:20;;;;;;;196.60;84.32;;;2.30;99.90;;;;;;4937620;29;20027;-84
2023/01/22 05:58:46;;;;;;;177.05;72.43;;;2.30;99.90;;;;;;4937803;29;20451;-85
2023/01/22 06:01:12;;;;;;;156.55;62.25;;;2.30;99.90;;;;;;4937096;29;20467;-85
2023/01/22 06:03:38;;;;;;;133.20;57.10;;;2.30;99.90;;;;;;4948028;29;20027;-84
2023/01/22 06:06:06;;;;;;;120.03;50.30;;;2.30;99.90;;;;;;4940541;29;20095;-84
2023/01/22 06:08:32;;;;;;;124.38;51.33;;;2.30;99.90;;;;;;4940414;29;20463;-84
2023/01/22 06:11:04;;;;;;;123.03;53.38;;;2.30;99.90;;;;;;4939834;28;20085;-85
2023/01/22 06:13:30;;;;;;;177.52;75.05;;;2.20;99.90;;;;;;4940496;29;20370;-85
2023/01/22 06:15:56;;;;;;;192.02;88.55;;;2.30;99.90;;;;;;4939980;29;20028;-85
2023/01/22 06:18:23;;;;;;;173.27;74.38;;;2.40;99.90;;;;;;4940006;29;20023;-85
2023/01/22 06:20:49;;;;;;;156.18;68.15;;;2.40;99.90;;;;;;4940056;29;20035;-84
2023/01/22 06:23:16;;;;;;;149.80;64.22;;;2.40;99.90;;;;;;4939588;29;20029;-84
2023/01/22 06:25:42;;;;;;;137.40;56.75;;;2.40;99.90;;;;;;4939424;29;20043;-85
2023/01/22 06:28:07;;;;;;;178.07;71.57;;;2.40;99.90;;;;;;4939140;29;20023;-85
2023/01/22 06:30:34;;;;;;;167.68;69.35;;;2.50;99.90;;;;;;4939640;29;20028;-85
2023/01/22 06:32:59;;;;;;;193.57;78.35;;;2.50;99.90;;;;;;4939597;29;20043;-84
2023/01/22 06:35:25;;;;;;;181.05;76.47;;;2.50;99.90;;;;;;4939337;29;20352;-84
2023/01/22 06:37:54;;;;;;;147.10;60.15;;;2.50;99.90;;;;;;4956665;29;20078;-84
2023/01/22 06:40:20;;;;;;;147.57;61.13;;;2.50;99.90;;;;;;4939299;29;20027;-85
2023/01/22 06:42:46;;;;;;;255.43;118.90;;;2.50;99.90;;;;;;4939282;29;20478;-84
2023/01/22 06:45:12;;;;;;;269.73;131.68;;;2.50;99.90;;;;;;4938971;29;20031;-85
2023/01/22 06:47:42;;;;;;;196.73;88.93;;;2.50;99.90;;;;;;4939268;29;20031;-84
2023/01/22 06:50:09;;;;;;;167.02;75.70;;;2.60;99.90;;;;;;4938904;29;20019;-85
2023/01/22 06:52:35;;;;;;;132.60;62.95;;;2.60;99.90;;;;;;4939327;29;20031;-85
2023/01/22 06:55:00;;;;;;;132.27;56.75;;;2.60;99.90;;;;;;4956663;29;20026;-84
2023/01/22 06:57:26;;;;;;;118.65;55.33;;;2.70;99.90;;;;;;4938932;29;20023;-84
2023/01/22 06:59:52;;;;;;;154.07;67.78;;;2.70;99.90;;;;;;4939041;29;20347;-84
2023/01/22 07:02:18;;;;;;;166.15;78.35;;;2.70;99.90;;;;;;4939044;29;20050;-85
2023/01/22 07:04:44;;;;;;;173.65;85.22;;;2.80;99.90;;;;;;4938745;29;20031;-84
2023/01/22 07:07:11;;;;;;;167.65;77.30;;;2.80;99.90;;;;;;4955960;29;20034;-84
2023/01/22 07:09:36;;;;;;;172.30;79.50;;;2.70;99.90;;;;;;4939060;29;20486;-84
2023/01/22 07:12:02;;;;;;;146.68;67.80;;;2.70;99.90;;;;;;4937372;28;20066;-84
2023/01/22 07:14:29;;;;;;;140.88;64.45;;;2.80;99.90;;;;;;4938333;29;20118;-85
2023/01/22 07:16:55;;;;;;;145.93;65.60;;;2.80;99.90;;;;;;4938649;29;20417;-84
2023/01/22 07:19:21;;;;;;;124.90;56.95;;;2.80;99.90;;;;;;4938688;29;20029;-84
2023/01/22 07:21:47;;;;;;;143.82;64.10;;;2.80;99.90;;;;;;4938668;29;20035;-85
2023/01/22 07:24:13;;;;;;;139.20;62.38;;;2.80;99.90;;;;;;4938497;29;20023;-84
2023/01/22 07:26:39;;;;;;;146.75;67.63;;;2.90;99.90;;;;;;4938530;29;20031;-85
2023/01/22 07:29:06;;;;;;;162.38;74.72;;;3.00;99.90;;;;;;4938463;29;20031;-85
2023/01/22 07:31:31;;;;;;;201.35;92.32;;;3.00;99.90;;;;;;4938116;29;20039;-85
2023/01/22 07:34:00;;;;;;;181.27;86.95;;;2.90;99.90;;;;;;4938601;29;20035;-84
2023/01/22 07:43:37;;;;;;;167.75;73.63;;;3.00;99.90;;;;;;4785992;30;20491;-85
2023/01/22 08:07:23;;;;;;;;;;;;;;;;;;;;;
2023/01/22 08:10:43;;;;;;;99.40;48.17;;;3.60;99.90;;;;;;4693143;30;20067;-86
2023/01/22 08:58:08;;;;;;;126.03;56.80;;;3.40;99.90;;;;;;4972366;28;20048;-87
2023/01/22 09:08:20;;;;;;;;;;;;;;;;;;;;;
2023/01/22 09:15:04;;;;;;;97.43;45.67;;;3.30;99.90;;;;;;4752617;30;20047;-85
2023/01/22 09:18:22;;;;;;;;;;;;;;;;;;;;;
2023/01/22 09:21:42;;;;;;;;;;;;;;;;;;;;;
2023/01/22 09:29:04;;;;;;;;;;;;;;;;;;;;;
2023/01/22 09:32:20;;;;;;;85.85;38.88;;;3.70;99.90;;;;;;4698940;30;20049;-85
2023/01/22 09:53:14;;;;;;;65.22;30.17;;;4.20;99.90;;;;;;4752169;30;20106;-86
2023/01/22 09:58:59;;;;;;;46.85;25.25;;;4.50;99.90;;;;;;4735197;30;20090;-86
2023/01/22 10:01:26;;;;;;;46.58;24.33;;;4.60;99.90;;;;;;4735459;30;20044;-85
2023/01/22 10:03:57;;;;;;;47.75;24.58;;;4.50;99.90;;;;;;4742386;30;20039;-86
2023/01/22 10:06:24;;;;;;;40.10;20.55;;;4.50;99.90;;;;;;4769399;30;20132;-85
2023/01/22 10:09:11;;;;;;;34.88;19.40;;;4.60;99.90;;;;;;4769990;30;20039;-85
2023/01/22 10:11:37;;;;;;;35.75;18.58;;;4.70;99.90;;;;;;4751693;30;20040;-86
2023/01/22 10:14:07;;;;;;;43.08;22.13;;;5.00;99.90;;;;;;4751906;30;20152;-85
2023/01/22 10:16:33;;;;;;;54.33;25.40;;;5.00;99.90;;;;;;4751746;30;20389;-86
2023/01/22 10:19:12;;;;;;;45.67;21.70;;;4.90;99.90;;;;;;4751673;30;20137;-85
2023/01/22 10:21:47;;;;;;;35.13;18.45;;;4.70;99.90;;;;;;4763411;30;20047;-86
2023/01/22 10:24:13;;;;;;;25.15;14.05;;;4.70;99.90;;;;;;4769531;30;20085;-86
2023/01/22 10:26:53;;;;;;;31.00;15.65;;;4.50;99.90;;;;;;4789739;29;20030;-86
2023/01/22 10:29:32;;;;;;;58.47;26.05;;;4.60;99.90;;;;;;4918841;28;20053;-85
2023/01/22 10:32:19;;;;;;;32.42;16.70;;;4.50;99.90;;;;;;4975466;28;20038;-86
2023/01/22 10:35:15;;;;;;;36.28;19.00;;;4.40;99.90;;;;;;4944820;28;20670;-86
2023/01/22 10:37:44;;;;;;;23.80;12.98;;;4.50;99.90;;;;;;4958452;28;20376;-86
2023/01/22 10:43:26;;;;;;;92.03;30.38;;;4.70;99.90;;;;;;4965553;28;20058;-87
2023/01/22 10:45:55;;;;;;;47.70;23.15;;;4.90;99.90;;;;;;4964696;28;20027;-87
2023/01/22 10:48:21;;;;;;;29.13;15.25;;;4.80;99.90;;;;;;4957743;28;20034;-86
2023/01/22 10:51:00;;;;;;;33.72;15.85;;;4.80;99.90;;;;;;4975788;28;20023;-80
2023/01/22 10:53:35;;;;;;;46.97;21.75;;;4.80;99.90;;;;;;4975360;28;20027;-78
2023/01/22 10:56:06;;;;;;;44.35;19.05;;;5.10;99.90;;;;;;4975611;28;20058;-81
2023/01/22 10:58:37;;;;;;;48.20;22.03;;;5.00;99.90;;;;;;4958017;28;20026;-80
2023/01/22 11:01:06;;;;;;;30.00;15.53;;;5.00;99.90;;;;;;4973731;28;20333;-81
2023/01/22 11:03:36;;;;;;;66.43;28.63;;;5.10;99.90;;;;;;4943294;28;20292;-85
2023/01/22 11:06:34;;;;;;;84.32;36.45;;;5.00;99.90;;;;;;4973595;28;20034;-83
2023/01/22 11:09:10;;;;;;;45.17;25.15;;;4.90;99.90;;;;;;4957422;28;20050;-85
2023/01/22 11:11:41;;;;;;;46.70;23.73;;;4.90;99.90;;;;;;4957438;28;20122;-84
2023/01/22 11:14:19;;;;;;;;;;;4.80;99.90;;;;;;4958262;28;20043;-83
2023/01/22 11:16:48;;;;;;;49.83;23.33;;;4.80;99.90;;;;;;4957118;28;20345;-84
2023/01/22 11:19:18;;;;;;;46.92;26.00;;;4.70;99.90;;;;;;4957451;28;20447;-83
2023/01/22 11:21:50;;;;;;;42.47;24.30;;;4.60;99.90;;;;;;4974696;28;20022;-83
2023/01/22 11:24:41;;;;;;;51.95;29.17;;;4.60;99.90;;;;;;4957495;28;20023;-84
2023/01/22 11:27:13;;;;;;;32.13;18.92;;;4.50;99.90;;;;;;4970664;28;20470;-81
2023/01/22 11:29:38;;;;;;;;;;;4.40;99.90;;;;;;4954107;29;20031;-82
2023/01/22 11:32:25;;;;;;;48.70;24.33;;;4.40;99.90;;;;;;4938485;29;19977;-82
2023/01/22 11:35:24;;;;;;;70.07;31.77;;;4.40;99.90;;;;;;4935814;29;20403;-82
2023/01/22 11:38:04;;;;;;;58.97;30.08;;;4.30;99.90;;;;;;4936523;29;20043;-82
2023/01/22 11:40:34;;;;;;;53.47;25.38;;;4.40;99.90;;;;;;4919349;29;20370;-83
2023/01/22 11:43:20;;;;;;;49.15;24.55;;;4.30;99.90;;;;;;4936276;29;20023;-82
2023/01/22 11:46:11;;;;;;;50.67;26.35;;;4.40;99.90;;;;;;4936287;29;20019;-82
2023/01/22 11:48:54;;;;;;;31.75;18.55;;;4.40;99.90;;;;;;4934166;29;20034;-82
2023/01/22 11:51:38;;;;;;;38.15;22.90;;;4.30;99.90;;;;;;4955290;29;20031;-82
2023/01/22 11:54:18;;;;;;;43.40;24.50;;;4.40;99.90;;;;;;4938152;29;20073;-83
2023/01/22 11:57:08;;;;;;;39.22;19.90;;;4.40;99.90;;;;;;4955211;29;20119;-81
2023/01/22 11:59:40;;;;;;;36.63;21.75;;;4.50;99.90;;;;;;4937863;29;20059;-82
2023/01/22 12:02:42;;;;;;;34.20;19.38;;;4.50;99.90;;;;;;4955280;29;20027;-82
2023/01/22 12:05:08;;;;;;;30.38;16.80;;;4.50;99.90;;;;;;4954966;29;20028;-82
2023/01/22 12:07:44;;;;;;;83.18;36.83;;;4.50;99.90;;;;;;4954738;29;20023;-82
2023/01/22 12:10:35;;;;;;;308.55;99.72;;;4.50;99.90;;;;;;4954794;29;20082;-83
2023/01/22 12:13:23;;;;;;;157.07;55.60;;;4.40;99.90;;;;;;4955109;29;20027;-82
2023/01/22 12:15:57;;;;;;;95.53;37.67;;;4.40;99.90;;;;;;4954958;29;20078;-81
2023/01/22 12:18:41;;;;;;;90.82;35.30;;;4.40;99.90;;;;;;4937574;29;20028;-83
2023/01/22 12:21:40;;;;;;;253.52;75.25;;;4.40;99.90;;;;;;4937933;29;20023;-84
2023/01/22 12:24:34;;;;;;;510.05;151.25;;;4.30;99.90;;;;;;4930365;29;20024;-81
2023/01/22 12:27:08;;;;;;;453.73;136.07;;;4.30;99.90;;;;;;4935395;29;20044;-81
2023/01/22 12:29:58;;;;;;;324.30;99.20;;;4.30;99.90;;;;;;4918648;29;20020;-81
2023/01/22 12:32:26;;;;;;;115.45;45.20;;;4.20;99.90;;;;;;4935601;29;20579;-82
2023/01/22 12:34:59;;;;;;;80.28;33.50;;;4.20;99.90;;;;;;4935901;29;20363;-82
2023/01/22 12:37:35;;;;;;;39.33;22.02;;;4.20;99.90;;;;;;4918381;29;20028;-82
2023/01/22 12:40:20;;;;;;;47.20;23.73;;;4.20;99.90;;;;;;4935868;29;20051;-81
2023/01/22 12:42:57;;;;;;;55.30;29.02;;;4.20;99.90;;;;;;4935315;29;20479;-82
2023/01/22 12:45:34;;;;;;;40.15;21.88;;;4.20;99.90;;;;;;4927441;29;20128;-80
2023/01/22 12:48:24;;;;;;;47.38;28.45;;;4.20;99.90;;;;;;4937443;29;20082;-82
2023/01/22 12:50:55;;;;;;;54.70;31.15;;;4.20;99.90;;;;;;4936343;29;20035;-83
2023/01/22 12:53:25;;;;;;;98.82;48.03;;;4.20;99.90;;;;;;4954641;29;20065;-83
2023/01/22 12:56:03;;;;;;;109.88;55.80;;;4.30;99.90;;;;;;4937723;29;20042;-84
2023/01/22 12:58:33;;;;;;;29.05;19.27;;;4.20;99.90;;;;;;4937278;29;20470;-83
2023/01/22 13:01:03;;;;;;;24.52;14.13;;;4.20;99.90;;;;;;4937435;29;20439;-84
2023/01/22 13:03:30;;;;;;;34.95;20.63;;;4.10;99.90;;;;;;4937449;29;20024;-82
2023/01/22 13:05:57;;;;;;;51.80;27.60;;;4.10;99.90;;;;;;4954576;29;20086;-84
2023/01/22 13:08:40;;;;;;;99.05;53.88;;;4.20;99.90;;;;;;4935569;29;20031;-84
2023/01/22 13:11:26;;;;;;;70.95;37.55;;;4.10;99.90;;;;;;4935352;29;20030;-81
2023/01/22 13:14:05;;;;;;;65.40;36.10;;;4.10;99.90;;;;;;4940953;29;20059;-81
2023/01/22 13:16:36;;;;;;;56.30;32.13;;;4.10;99.90;;;;;;4935326;29;20423;-83
2023/01/22 13:19:19;;;;;;;44.58;25.80;;;4.10;99.90;;;;;;4957355;29;20027;-81
2023/01/22 13:21:45;;;;;;;92.40;47.35;;;4.10;99.90;;;;;;4940199;29;20059;-84
2023/01/22 13:24:17;;;;;;;51.35;26.27;;;4.00;99.90;;;;;;4957308;29;20078;-83
2023/01/22 13:26:53;;;;;;;;;;;4.10;99.90;;;;;;4956261;28;20027;-86
2023/01/22 13:29:22;;;;;;;31.23;18.73;;;4.00;99.90;;;;;;4939953;29;19902;-84
2023/01/22 13:31:57;;;;;;;40.67;22.33;;;3.90;99.90;;;;;;4940462;29;20447;-84
2023/01/22 13:34:23;;;;;;;54.10;27.15;;;3.90;99.90;;;;;;4940842;29;20031;-84
2023/01/22 13:36:50;;;;;;;47.67;27.27;;;3.90;99.90;;;;;;4940387;29;20023;-85
2023/01/22 13:39:23;;;;;;;50.78;24.38;;;3.90;99.90;;;;;;4957448;29;20015;-84
2023/01/22 13:41:51;;;;;;;50.05;22.15;;;3.90;99.90;;;;;;4940382;29;20027;-83
2023/01/22 13:44:24;;;;;;;51.92;20.33;;;3.90;99.90;;;;;;4940319;29;20038;-85
2023/01/22 13:46:51;;;;;;;36.78;18.58;;;3.90;99.90;;;;;;4940460;29;20031;-84
2023/01/22 13:49:23;;;;;;;36.97;19.88;;;3.90;99.90;;;;;;4939892;29;20047;-85
2023/01/22 13:51:49;;;;;;;33.53;19.38;;;3.90;99.90;;;;;;4940192;29;20023;-84
2023/01/22 13:54:42;;;;;;;39.83;21.23;;;3.90;99.90;;;;;;4939918;29;20126;-84
2023/01/22 13:57:11;;;;;;;135.55;59.75;;;3.90;99.90;;;;;;4940305;29;20034;-84
2023/01/22 13:59:37;;;;;;;105.55;55.88;;;3.90;99.90;;;;;;4956991;29;20026;-84
2023/01/22 14:02:18;;;;;;;84.40;45.97;;;3.90;99.90;;;;;;4957021;29;20426;-84
2023/01/22 14:04:44;;;;;;;74.60;35.15;;;3.90;99.90;;;;;;4936276;29;20111;-85
2023/01/22 14:07:21;;;;;;;152.02;57.13;;;3.90;99.90;;;;;;4938780;29;20059;-85
2023/01/22 14:09:46;;;;;;;121.78;48.50;;;3.80;99.90;;;;;;4919033;29;20503;-85
2023/01/22 14:12:24;;;;;;;167.40;66.05;;;3.80;99.90;;;;;;4936728;29;20032;-85
2023/01/22 14:14:51;;;;;;;106.43;48.20;;;3.90;99.90;;;;;;4920967;29;20059;-84
2023/01/22 14:17:31;;;;;;;120.80;56.53;;;3.90;99.90;;;;;;4937760;29;20034;-84
2023/01/22 14:19:57;;;;;;;53.70;31.05;;;3.90;99.90;;;;;;4921002;29;20023;-84
2023/01/22 14:22:23;;;;;;;34.65;19.75;;;3.80;99.90;;;;;;4937690;29;20032;-84
2023/01/22 14:24:51;;;;;;;30.13;17.60;;;3.70;99.90;;;;;;4920450;29;20055;-86
2023/01/22 14:27:20;;;;;;;42.90;22.77;;;3.80;99.90;;;;;;4920512;29;20048;-84
2023/01/22 14:29:46;;;;;;;41.65;22.83;;;3.70;99.90;;;;;;4920680;29;20458;-84
2023/01/22 14:32:11;;;;;;;40.20;23.27;;;3.70;99.90;;;;;;4937356;29;20055;-84
2023/01/22 14:34:37;;;;;;;42.80;24.20;;;3.70;99.90;;;;;;4920426;29;20126;-84
2023/01/22 14:37:03;;;;;;;49.72;28.10;;;3.70;99.90;;;;;;4920435;29;20423;-84
2023/01/22 14:39:33;;;;;;;44.53;24.38;;;3.60;99.90;;;;;;4937155;29;20031;-83
2023/01/22 14:41:59;;;;;;;53.72;26.95;;;3.60;99.90;;;;;;4937410;29;20041;-84
2023/01/22 14:44:25;;;;;;;55.65;29.90;;;3.60;99.90;;;;;;4937332;29;20475;-84
2023/01/22 14:46:51;;;;;;;36.67;21.73;;;3.50;99.90;;;;;;4920258;29;20127;-83
2023/01/22 14:49:18;;;;;;;55.95;27.50;;;3.60;99.90;;;;;;4920231;29;20114;-83
2023/01/22 14:51:43;;;;;;;47.22;26.98;;;3.60;99.90;;;;;;4920059;29;20035;-84
2023/01/22 14:54:09;;;;;;;61.90;31.50;;;3.60;99.90;;;;;;4919998;29;20027;-85
2023/01/22 14:56:35;;;;;;;60.28;32.80;;;3.60;99.90;;;;;;4919870;29;20023;-84
2023/01/22 14:59:01;;;;;;;80.43;38.10;;;3.60;99.90;;;;;;4919908;29;20070;-84